Terminal Aerodrome Forecast
Issued by NWS Northern Indiana

Home | Current Version | Previous Version | Graphics & Text | Print | Product List | Glossary On
Versions: 1 2 3 4 5 6 7 8 9 10 11 12 13 14
000
FTUS43 KIWX 041614 AAA
TAFFWA
TAF AMD
KFWA 041614Z 0416/0512 24008KT P6SM VCTS SCT045CB
     FM041800 35008KT 4SM TSRA OVC040CB
     FM041930 04007KT P6SM BKN040
      TEMPO 0420/0424 5SM TSRA BKN040CB
     FM051000 00000KT 4SM BR SCT007 BKN040=

USA.gov is the U.S. government's official web portal to all federal, state and local government web resources and services.